createdAt,value
2023-01-30T00:04:20.789Z,4.4
2023-01-30T00:06:59.954Z,4.8
2023-01-30T00:12:00.516Z,3.1
2023-01-30T00:17:00.837Z,4.3
2023-01-30T00:22:01.277Z,4.6
2023-01-30T00:27:01.748Z,4.0
2023-01-30T00:32:02.156Z,5.0
2023-01-30T00:37:07.705Z,3.7
2023-01-30T00:42:02.956Z,4.5
2023-01-30T00:47:03.470Z,3.7
2023-01-30T00:52:03.948Z,2.5
2023-01-30T00:57:04.450Z,1.2
2023-01-30T01:02:04.872Z,1.9
2023-01-30T01:07:05.370Z,1.5
2023-01-30T01:12:05.714Z,1.8
2023-01-30T01:17:06.231Z,2.1
2023-01-30T01:22:06.721Z,2.2
2023-01-30T01:27:07.111Z,2.7
2023-01-30T01:32:08.019Z,2.0
2023-01-30T01:37:08.013Z,2.3
2023-01-30T01:42:10.011Z,2.0
2023-01-30T01:47:08.874Z,1.7
2023-01-30T01:52:09.367Z,1.9
2023-01-30T01:57:09.671Z,1.9
2023-01-30T02:02:10.228Z,1.8
2023-01-30T02:07:10.724Z,2.3
2023-01-30T02:12:11.052Z,2.9
2023-01-30T02:17:11.714Z,2.8
2023-01-30T02:22:11.955Z,2.7
2023-01-30T02:27:12.375Z,3.1
2023-01-30T02:32:13.098Z,2.6
2023-01-30T02:37:13.277Z,2.6
2023-01-30T02:42:13.765Z,3.5
2023-01-30T02:47:14.138Z,2.9
2023-01-30T02:52:15.468Z,3.1
2023-01-30T02:57:14.929Z,2.0
2023-01-30T03:02:15.557Z,2.6
2023-01-30T03:07:15.938Z,2.2
2023-01-30T03:12:16.439Z,2.8
2023-01-30T03:17:16.863Z,2.4
2023-01-30T03:22:17.354Z,2.7
2023-01-30T03:27:17.712Z,1.9
2023-01-30T03:32:18.506Z,3.0
2023-01-30T03:37:18.712Z,3.3
2023-01-30T03:42:19.193Z,4.8
2023-01-30T03:47:19.743Z,3.0
2023-01-30T03:52:20.147Z,2.5
2023-01-30T03:57:20.658Z,4.1
2023-01-30T04:02:21.223Z,2.5
2023-01-30T04:07:21.667Z,3.5
2023-01-30T04:12:22.059Z,3.4
2023-01-30T04:17:22.656Z,2.9
2023-01-30T04:22:22.998Z,4.0
2023-01-30T04:27:23.549Z,3.0
2023-01-30T04:32:24.375Z,3.0
2023-01-30T04:37:24.477Z,2.8
2023-01-30T04:42:24.947Z,2.3
2023-01-30T04:47:25.770Z,2.0
2023-01-30T04:52:25.926Z,2.0
2023-01-30T04:57:26.441Z,1.6
2023-01-30T05:02:26.906Z,2.1
2023-01-30T05:07:27.407Z,1.3
2023-01-30T05:12:27.837Z,1.6
2023-01-30T05:17:28.413Z,1.3
2023-01-30T05:22:28.794Z,1.6
2023-01-30T05:27:29.398Z,2.2
2023-01-30T05:32:30.380Z,1.3
2023-01-30T05:37:30.329Z,1.8
2023-01-30T05:42:30.825Z,2.1
2023-01-30T05:47:31.516Z,1.7
2023-01-30T05:52:31.804Z,1.4
2023-01-30T05:57:32.330Z,1.5
2023-01-30T06:02:32.843Z,1.5
2023-01-30T06:07:33.157Z,1.7
2023-01-30T06:12:33.671Z,1.3
2023-01-30T06:17:34.207Z,1.6
2023-01-30T06:22:34.734Z,1.4
2023-01-30T06:27:35.189Z,1.1
2023-01-30T06:32:36.136Z,1.2
2023-01-30T06:37:36.181Z,1.4
2023-01-30T06:42:36.787Z,1.8
2023-01-30T06:47:37.268Z,1.6
2023-01-30T06:52:37.682Z,1.3
2023-01-30T06:57:38.190Z,1.9
2023-01-30T07:02:38.789Z,1.7
2023-01-30T07:07:39.239Z,1.7
2023-01-30T07:12:39.740Z,1.3
2023-01-30T07:17:40.299Z,1.7
2023-01-30T07:22:40.690Z,1.4
2023-01-30T07:27:41.151Z,2.2
2023-01-30T07:32:42.361Z,1.5
2023-01-30T07:37:42.133Z,1.4
2023-01-30T07:42:42.722Z,1.1
2023-01-30T07:47:43.050Z,1.5
2023-01-30T07:52:43.604Z,2.0
2023-01-30T07:57:43.973Z,2.1
2023-01-30T08:02:44.591Z,1.6
2023-01-30T08:07:44.956Z,1.3
2023-01-30T08:12:45.486Z,1.6
2023-01-30T08:17:45.924Z,1.9
2023-01-30T08:22:46.470Z,1.4
2023-01-30T08:27:46.907Z,1.5
2023-01-30T08:32:47.536Z,1.9
2023-01-30T08:37:47.837Z,1.9
2023-01-30T08:42:48.423Z,1.7
2023-01-30T08:47:48.909Z,1.1
2023-01-30T08:52:49.368Z,2.5
2023-01-30T08:57:49.718Z,2.1
2023-01-30T09:02:50.284Z,1.4
2023-01-30T09:07:50.691Z,2.1
2023-01-30T09:12:51.180Z,1.7
2023-01-30T09:17:51.683Z,1.8
2023-01-30T09:22:52.040Z,1.6
2023-01-30T09:27:52.523Z,1.6
2023-01-30T09:32:53.672Z,1.4
2023-01-30T09:37:53.367Z,1.5
2023-01-30T09:42:53.833Z,0.9
2023-01-30T09:47:54.508Z,1.4
2023-01-30T09:52:54.851Z,1.3
2023-01-30T09:57:55.506Z,1.3
2023-01-30T10:02:55.884Z,1.1
2023-01-30T10:07:56.383Z,1.0
2023-01-30T10:12:56.737Z,1.3
2023-01-30T10:17:57.282Z,1.2
2023-01-30T10:22:57.640Z,1.0
2023-01-30T10:27:58.130Z,1.1
2023-01-30T10:32:58.988Z,1.1
2023-01-30T10:37:59.048Z,0.9
2023-01-30T10:42:59.550Z,1.3
2023-01-30T10:48:00.014Z,1.2
2023-01-30T10:53:00.412Z,1.1
2023-01-30T10:58:00.840Z,1.3
2023-01-30T11:03:01.498Z,1.7
2023-01-30T11:08:01.789Z,1.4
2023-01-30T11:13:02.340Z,1.3
2023-01-30T11:18:22.814Z,1.5
2023-01-30T11:23:03.216Z,1.7
2023-01-30T11:28:03.694Z,1.7
2023-01-30T11:33:04.763Z,1.8
2023-01-30T11:38:04.666Z,2.2
2023-01-30T11:43:05.179Z,2.1
2023-01-30T11:48:05.735Z,1.9
2023-01-30T11:53:06.107Z,1.5
2023-01-30T11:58:06.682Z,1.7
2023-01-30T12:03:07.207Z,1.4
2023-01-30T12:08:07.617Z,1.8
2023-01-30T12:13:07.979Z,2.7
2023-01-30T12:18:08.579Z,2.5
2023-01-30T12:23:08.905Z,2.2
2023-01-30T12:28:09.448Z,2.5
2023-01-30T12:33:09.928Z,2.3
2023-01-30T12:38:10.369Z,3.0
2023-01-30T12:43:11.035Z,2.8
2023-01-30T12:48:11.325Z,2.4
2023-01-30T12:53:11.740Z,2.0
2023-01-30T12:58:12.135Z,2.1
2023-01-30T13:03:12.770Z,2.2
2023-01-30T13:08:13.175Z,2.1
2023-01-30T13:13:13.667Z,1.7
2023-01-30T13:18:14.188Z,1.1
2023-01-30T13:23:14.641Z,1.7
2023-01-30T13:28:15.042Z,1.3
2023-01-30T13:33:16.095Z,0.9
2023-01-30T13:38:15.943Z,1.5
2023-01-30T13:43:16.498Z,1.6
2023-01-30T13:48:16.976Z,1.6
2023-01-30T13:53:17.433Z,1.8
2023-01-30T13:58:17.867Z,2.1
2023-01-30T14:03:18.453Z,1.9
2023-01-30T14:08:18.867Z,2.9
2023-01-30T14:13:19.373Z,3.3
2023-01-30T14:18:19.853Z,2.6
2023-01-30T14:23:20.380Z,2.4
2023-01-30T14:28:20.739Z,1.4
2023-01-30T14:33:21.413Z,2.3
2023-01-30T14:38:21.771Z,1.7
2023-01-30T14:43:22.153Z,2.3
2023-01-30T14:48:22.708Z,1.5
2023-01-30T14:53:23.205Z,1.3
2023-01-30T14:58:23.669Z,1.2
2023-01-30T15:03:24.062Z,1.8
2023-01-30T15:08:24.512Z,1.4
2023-01-30T15:13:24.878Z,1.8
2023-01-30T15:18:25.511Z,1.6
2023-01-30T15:23:25.878Z,2.3
2023-01-30T15:28:26.569Z,2.9
2023-01-30T15:33:31.505Z,1.8
2023-01-30T15:38:27.384Z,2.2
2023-01-30T15:43:27.749Z,2.1
2023-01-30T15:48:28.291Z,1.8
2023-01-30T15:53:28.655Z,1.6
2023-01-30T15:58:29.110Z,1.4
2023-01-30T16:03:29.711Z,2.1
2023-01-30T16:08:30.013Z,2.1
2023-01-30T16:13:30.494Z,2.1
2023-01-30T16:18:30.992Z,1.9
2023-01-30T16:23:31.406Z,2.0
2023-01-30T16:28:31.812Z,1.4
2023-01-30T16:33:32.686Z,1.4
2023-01-30T16:38:32.692Z,1.8
2023-01-30T16:43:33.163Z,1.7
2023-01-30T16:48:33.686Z,1.3
2023-01-30T16:53:33.997Z,1.4
2023-01-30T16:58:34.505Z,1.6
2023-01-30T17:03:34.943Z,0.9
2023-01-30T17:08:35.409Z,1.0
2023-01-30T17:13:35.702Z,1.4
2023-01-30T17:18:36.301Z,1.0
2023-01-30T17:23:36.640Z,1.3
2023-01-30T17:28:37.117Z,1.5
2023-01-30T17:33:38.245Z,1.7
2023-01-30T17:38:38.089Z,1.3
2023-01-30T17:43:38.643Z,1.3
2023-01-30T17:48:39.014Z,1.4
2023-01-30T17:53:39.485Z,3.1
2023-01-30T17:58:39.901Z,1.5
2023-01-30T18:03:40.491Z,1.5
2023-01-30T18:08:40.841Z,1.2
2023-01-30T18:13:41.347Z,1.3
2023-01-30T18:18:41.745Z,1.0
2023-01-30T18:23:42.208Z,1.1
2023-01-30T18:28:42.722Z,1.4
2023-01-30T18:33:43.420Z,0.7
2023-01-30T18:38:43.536Z,0.8
2023-01-30T18:43:44.005Z,0.7
2023-01-30T18:48:44.691Z,0.6
2023-01-30T18:53:44.944Z,0.5
2023-01-30T18:58:45.481Z,0.5
2023-01-30T19:03:45.939Z,0.4
2023-01-30T19:08:46.375Z,0.3
2023-01-30T19:13:46.799Z,0.6
2023-01-30T19:18:47.378Z,0.4
2023-01-30T19:23:47.670Z,0.4
2023-01-30T19:28:48.139Z,0.5
2023-01-30T19:33:49.269Z,0.6
2023-01-30T19:38:49.109Z,0.4
2023-01-30T19:43:49.609Z,0.4
2023-01-30T19:48:49.988Z,0.5
2023-01-30T19:53:50.581Z,0.7
2023-01-30T19:58:50.966Z,0.8
2023-01-30T20:03:51.591Z,0.4
2023-01-30T20:08:51.866Z,0.8
2023-01-30T20:13:52.401Z,0.7
2023-01-30T20:18:52.857Z,0.6
2023-01-30T20:23:53.332Z,0.8
2023-01-30T20:28:53.770Z,0.8
2023-01-30T20:33:54.682Z,1.0
2023-01-30T20:38:54.791Z,2.5
2023-01-30T20:43:55.336Z,1.1
2023-01-30T20:48:55.928Z,0.7
2023-01-30T20:53:56.424Z,0.9
2023-01-30T20:58:56.801Z,1.0
2023-01-30T21:03:57.588Z,0.9
2023-01-30T21:08:57.850Z,1.1
2023-01-30T21:13:58.395Z,0.7
2023-01-30T21:19:01.335Z,0.8
2023-01-30T21:23:59.541Z,0.7
2023-01-30T21:29:00.264Z,0.9
2023-01-30T21:34:00.553Z,0.7
2023-01-30T21:39:00.768Z,1.4
2023-01-30T21:44:01.359Z,1.8
2023-01-30T21:49:01.812Z,2.0
2023-01-30T21:54:02.341Z,2.1
2023-01-30T21:59:02.736Z,2.1
2023-01-30T22:04:03.402Z,2.0
2023-01-30T22:09:03.789Z,2.0
2023-01-30T22:14:04.272Z,1.5
2023-01-30T22:19:04.778Z,2.3
2023-01-30T22:24:05.341Z,2.4
2023-01-30T22:29:05.726Z,2.1
2023-01-30T22:34:06.815Z,3.1
2023-01-30T22:39:06.788Z,3.0
2023-01-30T22:44:07.332Z,3.6
2023-01-30T22:49:07.899Z,4.4
2023-01-30T22:54:08.429Z,3.6
2023-01-30T22:59:08.895Z,3.7
2023-01-30T23:04:09.464Z,4.7
2023-01-30T23:09:09.850Z,5.1
2023-01-30T23:14:10.366Z,4.5
2023-01-30T23:19:10.954Z,5.2
2023-01-30T23:24:11.511Z,5.5
2023-01-30T23:29:11.845Z,5.3
2023-01-30T23:34:12.836Z,6.8
2023-01-30T23:39:12.897Z,5.7
2023-01-30T23:44:13.542Z,7.0
2023-01-30T23:49:13.989Z,6.2
2023-01-30T23:54:14.499Z,6.0
2023-01-30T23:59:14.953Z,5.7
